Aywaille, Belgium
Current Conditions -  °F | °C
As of 9:50 AM on Thursday 23 Oct 2014 (Local Time) from EBLG Reporting Station
Broken Clouds Broken Clouds  
Wind Chill: 44°   Ceiling: 2200
Heat Index: 48°   Visibility: 5mi
Dew Point: 45°   Wind: 9mph
Humidity: 87%   Direction: 180°S
Pressure: 30.24"   Gusts: NA
Location:  50.46°N, 5.71°E
Report Text: EBLG 230750Z 18008KT 8000 BKN022 09/07 Q1024 NOSIG
Loading
Personal Weather Stations






























Interactive Weather Map
Tropical Storm Tracking
New forecast layout! Learn more

10-Day Weather Forecast

Advertisements
Track Severe Weather on mobile